Terminal Aerodrome Forecast
Issued by NWS Cleveland, OH

Home | Current Version | Previous Version | Graphics & Text | Print | Product List | Glossary Off
Versions: 1 2 3 4 5 6 7 8 9 10 11 12 13 14 15 16

000
FTUS41 KCLE 220533
TAFCAK
TAF
KCAK 220533Z 2206/2306 21005KT P6SM OVC100
     FM220900 20003KT P6SM OVC050
      TEMPO 2209/2212 5SM BR OVC025
     FM221200 18003KT 4SM BR OVC012
      TEMPO 2212/2216 OVC008
     FM221600 20006KT 5SM BR OVC012
     FM222000 20006KT P6SM OVC025
     FM222200 22006KT P6SM OVC035
     FM230200 18006KT 5SM BR OVC015=

USA.gov is the U.S. government's official web portal to all federal, state and local government web resources and services.